Time;durP1;ratioP1;P1;durP2;ratioP2;P2;SDS_P1;SDS_P2;PMS_P1;PMS_P2;Temp;Humidity;BMP_temperature;BMP_pressure;BME280_temperature;BME280_humidity;BME280_pressure;Samples;Min_cycle;Max_cycle;Signal;HPM_P1;HPM_P2
2023/08/27 00:00:44;;;;;;;8.27;6.40;;;12.70;96.60;;;;;;5031339;28;20714;-70
2023/08/27 00:03:09;;;;;;;7.80;6.10;;;12.70;96.30;;;;;;5029597;28;20041;-70
2023/08/27 00:05:45;;;;;;;8.87;6.17;;;12.70;96.30;;;;;;5028553;28;20060;-70
2023/08/27 00:08:11;;;;;;;6.77;5.87;;;12.70;96.70;;;;;;5021157;28;20053;-70
2023/08/27 00:10:37;;;;;;;8.53;6.43;;;12.70;96.50;;;;;;5028269;28;20312;-70
2023/08/27 00:13:03;;;;;;;7.87;5.63;;;12.70;97.20;;;;;;5025914;28;20048;-70
2023/08/27 00:15:28;;;;;;;7.50;6.70;;;12.70;97.20;;;;;;5031084;28;20122;-71
2023/08/27 00:17:54;;;;;;;6.97;6.27;;;12.70;97.00;;;;;;5030964;28;20048;-70
2023/08/27 00:20:20;;;;;;;7.63;6.53;;;12.60;96.80;;;;;;5013627;28;20382;-71
2023/08/27 00:22:46;;;;;;;8.70;6.33;;;12.60;96.90;;;;;;5026126;28;20053;-71
2023/08/27 00:25:12;;;;;;;8.47;6.43;;;12.60;97.00;;;;;;5027054;28;20700;-71
2023/08/27 00:27:38;;;;;;;10.10;6.57;;;12.60;97.20;;;;;;5026680;28;20319;-71
2023/08/27 00:30:04;;;;;;;10.10;7.07;;;12.60;97.00;;;;;;5010557;28;20072;-71
2023/08/27 00:32:33;;;;;;;7.60;6.80;;;12.60;96.80;;;;;;5022153;28;20091;-71
2023/08/27 00:35:03;;;;;;;8.30;6.77;;;12.60;97.10;;;;;;5029536;28;20363;-70
2023/08/27 00:37:29;;;;;;;8.80;6.50;;;12.60;97.20;;;;;;5039775;28;20292;-70
2023/08/27 00:39:55;;;;;;;8.97;7.00;;;12.60;97.30;;;;;;5028926;28;20280;-71
2023/08/27 00:42:21;;;;;;;9.73;6.97;;;12.60;97.30;;;;;;5026217;28;20788;-71
2023/08/27 00:44:47;;;;;;;9.17;7.57;;;12.60;97.50;;;;;;5029892;28;20120;-71
2023/08/27 00:47:15;;;;;;;7.87;7.07;;;12.70;97.60;;;;;;5021922;28;20115;-71
2023/08/27 00:49:42;;;;;;;8.43;6.67;;;12.70;97.60;;;;;;5016457;28;20493;-71
2023/08/27 00:52:11;;;;;;;8.10;7.10;;;12.70;97.50;;;;;;5025167;28;20327;-70
2023/08/27 00:54:38;;;;;;;8.77;7.53;;;12.70;97.50;;;;;;5024203;28;20315;-71
2023/08/27 00:57:05;;;;;;;8.80;7.67;;;12.70;97.60;;;;;;5004690;28;20760;-71
2023/08/27 00:59:32;;;;;;;8.77;7.87;;;12.70;98.20;;;;;;5012997;28;20648;-70
2023/08/27 01:01:58;;;;;;;9.67;7.83;;;12.70;98.10;;;;;;5027404;28;20337;-71
2023/08/27 01:04:23;;;;;;;8.90;8.00;;;12.70;98.30;;;;;;5025005;28;20316;-70
2023/08/27 01:06:50;;;;;;;13.60;8.57;;;12.70;98.50;;;;;;5029496;28;20037;-71
2023/08/27 01:09:25;;;;;;;9.27;7.80;;;12.70;98.30;;;;;;5030675;28;20037;-70
2023/08/27 01:12:09;;;;;;;9.75;8.60;;;12.70;98.40;;;;;;5006116;28;20382;-71
2023/08/27 01:14:37;;;;;;;9.77;8.77;;;12.70;98.40;;;;;;5021411;28;20477;-71
2023/08/27 01:17:07;;;;;;;10.53;8.70;;;12.70;99.00;;;;;;5030202;28;20288;-71
2023/08/27 01:19:33;;;;;;;10.80;8.87;;;12.80;98.60;;;;;;5030323;28;20288;-71
2023/08/27 01:21:59;;;;;;;9.97;7.97;;;12.80;98.60;;;;;;5028717;28;20285;-71
2023/08/27 01:24:25;;;;;;;10.27;8.40;;;12.70;98.70;;;;;;5021811;28;20291;-71
2023/08/27 01:27:10;;;;;;;9.67;8.30;;;12.70;98.40;;;;;;5013401;28;20037;-71
2023/08/27 01:29:54;;;;;;;9.30;7.72;;;12.70;98.30;;;;;;5029988;28;20075;-71
2023/08/27 01:32:32;;;;;;;11.10;7.83;;;12.70;98.20;;;;;;5022163;28;20490;-71
2023/08/27 01:35:01;;;;;;;10.10;8.47;;;12.70;98.40;;;;;;5029345;28;20280;-71
2023/08/27 01:37:27;;;;;;;10.77;8.80;;;12.70;98.60;;;;;;5031912;28;20356;-71
2023/08/27 01:40:01;;;;;;;11.07;8.10;;;12.70;98.80;;;;;;5029651;28;20421;-71
2023/08/27 01:42:27;;;;;;;10.10;8.33;;;12.70;98.70;;;;;;5034392;28;20057;-71
2023/08/27 01:44:55;;;;;;;9.77;7.47;;;12.80;99.00;;;;;;5038768;28;20287;-72
2023/08/27 01:47:20;;;;;;;9.63;8.07;;;12.80;99.10;;;;;;5028617;28;20321;-71
2023/08/27 01:49:48;;;;;;;12.20;8.20;;;12.80;99.10;;;;;;5016881;28;20287;-71
2023/08/27 01:52:13;;;;;;;9.77;8.23;;;12.80;99.00;;;;;;5031987;28;20112;-71
2023/08/27 01:54:39;;;;;;;11.20;8.60;;;12.80;98.80;;;;;;5034895;28;20711;-71
2023/08/27 01:57:05;;;;;;;11.30;8.50;;;12.90;99.00;;;;;;5033642;28;20051;-71
2023/08/27 01:59:30;;;;;;;11.57;7.63;;;12.90;99.00;;;;;;5033592;28;20041;-71
2023/08/27 02:01:56;;;;;;;9.17;7.37;;;12.90;98.90;;;;;;5026452;28;20127;-71
2023/08/27 02:04:22;;;;;;;10.37;6.87;;;12.90;99.00;;;;;;5022619;28;20041;-71
2023/08/27 02:06:48;;;;;;;9.23;7.33;;;12.90;98.80;;;;;;5022614;28;20139;-71
2023/08/27 02:09:15;;;;;;;8.60;7.60;;;12.90;98.80;;;;;;5034366;28;20359;-71
2023/08/27 02:11:41;;;;;;;8.60;7.20;;;12.80;98.80;;;;;;5031824;28;20038;-71
2023/08/27 02:14:07;;;;;;;10.37;7.53;;;12.80;98.80;;;;;;5019135;28;20272;-71
2023/08/27 02:16:34;;;;;;;8.47;7.43;;;12.80;98.80;;;;;;5004274;28;20375;-71
2023/08/27 02:19:00;;;;;;;8.37;7.53;;;12.70;98.80;;;;;;5032401;28;20045;-71
2023/08/27 02:21:26;;;;;;;9.73;7.33;;;12.70;98.90;;;;;;5021384;28;20311;-71
2023/08/27 02:23:52;;;;;;;8.50;7.10;;;12.70;98.80;;;;;;5026913;28;20280;-71
2023/08/27 02:26:17;;;;;;;9.00;7.83;;;12.60;99.10;;;;;;5014107;28;20077;-71
2023/08/27 02:28:44;;;;;;;8.27;7.37;;;12.60;99.00;;;;;;5032039;28;20070;-71
2023/08/27 02:31:10;;;;;;;10.73;7.77;;;12.60;99.00;;;;;;5027646;28;20056;-71
2023/08/27 02:33:37;;;;;;;9.10;7.73;;;12.60;99.00;;;;;;5013515;28;20783;-71
2023/08/27 02:36:03;;;;;;;10.17;7.90;;;12.50;99.00;;;;;;5016654;28;20287;-71
2023/08/27 02:38:28;;;;;;;9.47;7.57;;;12.50;98.90;;;;;;5028330;28;20553;-71
2023/08/27 02:40:54;;;;;;;10.17;7.53;;;12.40;98.90;;;;;;5021091;28;20084;-71
2023/08/27 02:43:20;;;;;;;9.27;7.50;;;12.40;98.90;;;;;;5033435;28;20041;-71
2023/08/27 02:45:47;;;;;;;9.03;7.20;;;12.40;99.30;;;;;;5024220;28;20092;-71
2023/08/27 02:48:13;;;;;;;10.67;7.53;;;12.40;99.20;;;;;;5020657;28;20063;-72
2023/08/27 02:50:38;;;;;;;11.03;8.10;;;12.30;99.30;;;;;;5029822;28;20370;-71
2023/08/27 02:53:05;;;;;;;11.00;8.13;;;12.30;99.40;;;;;;5031073;28;20025;-71
2023/08/27 02:55:31;;;;;;;8.57;7.67;;;12.30;99.60;;;;;;5020081;28;20666;-71
2023/08/27 02:58:00;;;;;;;11.53;8.07;;;12.30;99.60;;;;;;5019905;28;20326;-71
2023/08/27 03:00:27;;;;;;;13.97;8.03;;;12.30;99.70;;;;;;5030413;28;20287;-71
2023/08/27 03:02:52;;;;;;;9.83;8.23;;;12.30;99.60;;;;;;5027631;28;20764;-71
2023/08/27 03:05:19;;;;;;;10.07;7.60;;;12.30;99.70;;;;;;5024647;28;20298;-71
2023/08/27 03:07:45;;;;;;;11.20;8.00;;;12.30;99.40;;;;;;5026857;28;20322;-71
2023/08/27 03:10:10;;;;;;;9.30;7.70;;;12.30;99.60;;;;;;5028403;28;20332;-71
2023/08/27 03:12:36;;;;;;;10.47;8.10;;;12.40;99.70;;;;;;5027782;28;20307;-71
2023/08/27 03:15:02;;;;;;;10.27;8.37;;;12.40;99.90;;;;;;5022653;28;20478;-71
2023/08/27 03:17:28;;;;;;;10.60;8.00;;;12.50;99.90;;;;;;5025923;28;20072;-71
2023/08/27 03:19:54;;;;;;;11.37;8.80;;;12.50;99.90;;;;;;5028118;28;20311;-71
2023/08/27 03:22:21;;;;;;;11.20;8.17;;;12.50;99.90;;;;;;5025047;28;20078;-71
2023/08/27 03:24:47;;;;;;;10.40;8.80;;;12.60;99.90;;;;;;5021913;28;20041;-71
2023/08/27 03:27:12;;;;;;;10.50;8.20;;;12.60;99.90;;;;;;5025338;28;20287;-71
2023/08/27 03:29:39;;;;;;;9.40;8.17;;;12.70;99.90;;;;;;5026869;28;20045;-71
2023/08/27 03:32:06;;;;;;;9.57;7.83;;;12.70;99.90;;;;;;5031269;28;20037;-71
2023/08/27 03:34:32;;;;;;;12.83;9.47;;;12.70;99.90;;;;;;5032435;28;20295;-71
2023/08/27 03:36:58;;;;;;;11.57;8.10;;;12.80;99.90;;;;;;5028874;28;20295;-71
2023/08/27 03:39:24;;;;;;;9.70;8.70;;;12.80;99.90;;;;;;5025940;28;20283;-71
2023/08/27 03:41:49;;;;;;;11.33;8.83;;;12.90;99.90;;;;;;5031248;28;20053;-71
2023/08/27 03:44:15;;;;;;;10.40;8.37;;;12.90;99.90;;;;;;5031624;28;20103;-71
2023/08/27 03:46:41;;;;;;;12.57;8.50;;;13.00;99.90;;;;;;5032170;28;20045;-71
2023/08/27 03:49:07;;;;;;;10.70;8.93;;;13.00;99.90;;;;;;5032074;28;20077;-71
2023/08/27 03:51:33;;;;;;;10.30;8.70;;;13.00;99.90;;;;;;5024151;28;20486;-71
2023/08/27 03:53:59;;;;;;;10.10;8.20;;;13.00;99.90;;;;;;5027548;28;20045;-71
2023/08/27 03:56:25;;;;;;;9.93;8.17;;;13.10;99.90;;;;;;5019125;28;20083;-71
2023/08/27 03:58:51;;;;;;;11.70;8.67;;;13.10;99.90;;;;;;5030588;28;20295;-71
2023/08/27 04:01:17;;;;;;;11.80;8.33;;;13.10;99.90;;;;;;5031802;28;20037;-71
2023/08/27 04:03:43;;;;;;;12.73;8.77;;;13.10;99.90;;;;;;5031177;28;20045;-71
2023/08/27 04:06:10;;;;;;;10.93;8.50;;;13.10;99.90;;;;;;5009123;28;20945;-72
2023/08/27 04:08:36;;;;;;;10.50;8.20;;;13.10;99.90;;;;;;5030614;28;20052;-71
2023/08/27 04:11:03;;;;;;;10.70;8.43;;;13.10;99.90;;;;;;5029369;28;20335;-71
2023/08/27 04:13:32;;;;;;;9.67;8.00;;;13.10;99.90;;;;;;5013340;28;20298;-71
2023/08/27 04:16:03;;;;;;;9.93;8.03;;;13.10;99.90;;;;;;5030595;28;20284;-71
2023/08/27 04:18:29;;;;;;;9.73;8.00;;;13.10;99.90;;;;;;5029807;28;20672;-71
2023/08/27 04:20:56;;;;;;;10.57;8.30;;;13.10;99.90;;;;;;5031417;28;20315;-71
2023/08/27 04:23:22;;;;;;;11.43;8.20;;;13.00;99.90;;;;;;5030473;28;20107;-71
2023/08/27 04:25:47;;;;;;;8.83;7.57;;;13.00;99.90;;;;;;5029350;28;20295;-71
2023/08/27 04:28:14;;;;;;;10.40;7.70;;;12.90;99.90;;;;;;5029277;28;20037;-71
2023/08/27 04:30:41;;;;;;;11.97;8.30;;;12.90;99.90;;;;;;5030800;28;20052;-71
2023/08/27 04:33:06;;;;;;;11.07;7.87;;;12.90;99.90;;;;;;5028559;28;20359;-71
2023/08/27 04:35:33;;;;;;;11.33;7.37;;;12.90;99.90;;;;;;5028429;28;20362;-71
2023/08/27 04:37:58;;;;;;;9.67;7.97;;;12.90;99.90;;;;;;5028387;28;20049;-71
2023/08/27 04:40:24;;;;;;;11.77;7.73;;;12.90;99.90;;;;;;5030686;28;20355;-71
2023/08/27 04:42:50;;;;;;;11.00;7.47;;;13.00;99.90;;;;;;5023365;28;20053;-71
2023/08/27 04:45:16;;;;;;;9.07;7.27;;;13.00;99.90;;;;;;5007606;28;20049;-71
2023/08/27 04:47:41;;;;;;;9.93;7.00;;;13.10;99.90;;;;;;5016782;28;20072;-70
2023/08/27 04:50:08;;;;;;;10.80;7.47;;;13.10;99.90;;;;;;5011084;28;20494;-71
2023/08/27 04:52:34;;;;;;;11.33;7.77;;;13.20;99.90;;;;;;5010571;28;20042;-71
2023/08/27 04:55:01;;;;;;;10.50;7.60;;;13.30;99.90;;;;;;5034914;28;20284;-71
2023/08/27 04:57:26;;;;;;;9.40;7.37;;;13.30;99.90;;;;;;4993795;28;20367;-71
2023/08/27 04:59:54;;;;;;;10.63;7.80;;;13.40;99.90;;;;;;5010749;28;20338;-71
2023/08/27 05:02:19;;;;;;;9.20;7.17;;;13.50;99.90;;;;;;5044027;28;20050;-71
2023/08/27 05:04:46;;;;;;;11.10;7.90;;;13.50;99.90;;;;;;5011666;28;20292;-71
2023/08/27 05:07:11;;;;;;;9.70;7.17;;;13.60;99.90;;;;;;5022550;28;20049;-71
2023/08/27 05:09:37;;;;;;;10.73;7.47;;;13.60;99.90;;;;;;5009525;28;20683;-71
2023/08/27 05:12:03;;;;;;;9.77;7.77;;;13.70;99.90;;;;;;5009945;28;20061;-71
2023/08/27 05:14:29;;;;;;;10.07;7.73;;;13.80;99.90;;;;;;5020818;28;20391;-71
2023/08/27 05:16:55;;;;;;;9.20;7.60;;;13.80;99.90;;;;;;5013852;28;20128;-71
2023/08/27 05:19:20;;;;;;;10.63;6.80;;;13.90;99.90;;;;;;5047745;28;20421;-71
2023/08/27 05:21:46;;;;;;;10.00;7.70;;;13.90;99.90;;;;;;5012981;28;20561;-71
2023/08/27 05:24:12;;;;;;;10.97;7.57;;;13.90;99.90;;;;;;4997442;28;20478;-71
2023/08/27 05:26:38;;;;;;;9.00;7.33;;;14.00;99.90;;;;;;4997579;28;20037;-71
2023/08/27 05:29:04;;;;;;;11.83;7.40;;;14.00;99.90;;;;;;5019161;28;20045;-71
2023/08/27 05:31:30;;;;;;;8.73;7.23;;;14.10;99.90;;;;;;5016461;28;20108;-71
2023/08/27 05:33:55;;;;;;;8.90;7.30;;;14.10;99.90;;;;;;5046897;28;20695;-71
2023/08/27 05:36:21;;;;;;;10.30;7.23;;;14.10;99.90;;;;;;4997841;28;20129;-71
2023/08/27 05:38:48;;;;;;;10.17;7.17;;;14.20;99.90;;;;;;5011876;28;20025;-71
2023/08/27 05:41:14;;;;;;;10.97;6.77;;;14.20;99.90;;;;;;5018791;28;20062;-70
2023/08/27 05:43:44;;;;;;;9.03;7.37;;;14.30;99.90;;;;;;5033737;28;20287;-71
2023/08/27 05:46:10;;;;;;;10.17;6.83;;;14.30;99.90;;;;;;5028292;28;20502;-71
2023/08/27 05:48:37;;;;;;;8.87;7.23;;;14.30;99.90;;;;;;5030693;28;20390;-71
2023/08/27 05:51:03;;;;;;;11.30;7.03;;;14.40;99.90;;;;;;5026404;28;20472;-71
2023/08/27 05:53:29;;;;;;;11.20;7.87;;;14.40;99.90;;;;;;5008845;28;20372;-71
2023/08/27 05:55:55;;;;;;;10.00;7.43;;;14.40;99.90;;;;;;5014890;28;20041;-71
2023/08/27 05:58:20;;;;;;;11.07;8.00;;;14.50;99.90;;;;;;5032806;28;20539;-72
2023/08/27 06:00:46;;;;;;;9.27;7.23;;;14.50;99.90;;;;;;5033132;28;20550;-71
2023/08/27 06:03:12;;;;;;;11.93;8.20;;;14.50;99.90;;;;;;5024899;28;20048;-71
2023/08/27 06:05:38;;;;;;;12.00;7.87;;;14.60;99.90;;;;;;5024527;28;20064;-71
2023/08/27 06:08:04;;;;;;;10.07;8.10;;;14.60;99.90;;;;;;5024792;28;20514;-71
2023/08/27 06:10:30;;;;;;;13.60;8.23;;;14.70;99.90;;;;;;5029431;28;20321;-71
2023/08/27 06:12:57;;;;;;;10.63;7.63;;;14.80;99.90;;;;;;5026349;28;20037;-71
2023/08/27 06:15:27;;;;;;;11.77;8.50;;;14.80;99.90;;;;;;5030914;28;20284;-71
2023/08/27 06:17:54;;;;;;;9.37;7.03;;;14.90;99.90;;;;;;5032473;28;20291;-71
2023/08/27 06:20:20;;;;;;;10.00;7.00;;;15.00;99.90;;;;;;5032740;28;20291;-71
2023/08/27 06:22:45;;;;;;;12.63;8.07;;;15.10;99.90;;;;;;5032079;28;20275;-71
2023/08/27 06:25:11;;;;;;;10.47;7.73;;;15.10;99.90;;;;;;5017685;28;20291;-71
2023/08/27 06:27:37;;;;;;;12.87;7.70;;;15.20;99.90;;;;;;5026449;28;20045;-71
2023/08/27 06:30:05;;;;;;;10.60;7.70;;;15.30;99.90;;;;;;5033028;28;20096;-71
2023/08/27 06:32:31;;;;;;;9.50;6.73;;;15.40;99.90;;;;;;5016604;28;20307;-71
2023/08/27 06:34:56;;;;;;;7.63;6.03;;;15.50;99.60;;;;;;5032264;28;20390;-71
2023/08/27 06:37:22;;;;;;;6.47;4.90;;;15.50;99.20;;;;;;5032221;28;20048;-71
2023/08/27 06:39:49;;;;;;;4.17;3.17;;;15.60;98.80;;;;;;5031711;28;20140;-71
2023/08/27 06:42:15;;;;;;;5.27;3.20;;;15.70;98.40;;;;;;5027750;28;20053;-71
2023/08/27 06:44:41;;;;;;;4.07;2.83;;;15.70;97.50;;;;;;5031228;28;20832;-71
2023/08/27 06:47:07;;;;;;;4.67;2.67;;;15.70;97.50;;;;;;5031671;28;20363;-71
2023/08/27 06:49:32;;;;;;;7.20;3.00;;;15.80;97.50;;;;;;5032998;28;20068;-71
2023/08/27 06:51:58;;;;;;;5.10;2.77;;;15.80;97.20;;;;;;5032576;28;20342;-71
2023/08/27 06:54:24;;;;;;;4.70;2.10;;;15.90;97.30;;;;;;5016349;28;20372;-71
2023/08/27 06:56:50;;;;;;;3.00;1.50;;;16.00;97.20;;;;;;5032317;28;20072;-71
2023/08/27 06:59:16;;;;;;;3.63;1.40;;;16.10;95.30;;;;;;5029570;28;20437;-71
2023/08/27 07:01:42;;;;;;;5.63;2.53;;;16.10;95.20;;;;;;5032816;28;20611;-71
2023/08/27 07:04:08;;;;;;;4.13;1.47;;;16.20;95.40;;;;;;5017597;28;20284;-71
2023/08/27 07:06:33;;;;;;;2.83;1.23;;;16.30;94.80;;;;;;5030559;28;20052;-71
2023/08/27 07:09:00;;;;;;;4.57;1.40;;;16.30;94.90;;;;;;5031627;28;20115;-71
2023/08/27 07:11:25;;;;;;;3.73;1.33;;;16.30;93.20;;;;;;5028690;28;20049;-71
2023/08/27 07:13:51;;;;;;;3.40;1.67;;;16.20;93.10;;;;;;5030076;28;20291;-71
2023/08/27 07:16:18;;;;;;;2.90;1.07;;;16.20;93.00;;;;;;5014805;28;20052;-71
2023/08/27 07:18:43;;;;;;;2.80;0.70;;;16.20;92.80;;;;;;5031448;28;20036;-71
2023/08/27 07:21:09;;;;;;;2.80;0.73;;;16.20;91.90;;;;;;5015393;28;20381;-71
2023/08/27 07:23:35;;;;;;;1.67;0.63;;;16.20;92.50;;;;;;5028470;28;20037;-71
2023/08/27 07:26:03;;;;;;;1.47;0.50;;;16.30;92.40;;;;;;5032335;28;20529;-71
2023/08/27 07:28:30;;;;;;;1.33;0.30;;;16.40;91.70;;;;;;5030973;28;20337;-71
2023/08/27 07:30:55;;;;;;;1.43;0.30;;;16.50;91.70;;;;;;5015145;28;20827;-71
2023/08/27 07:33:22;;;;;;;1.13;0.30;;;16.60;89.60;;;;;;5030805;28;20283;-71
2023/08/27 07:35:48;;;;;;;1.03;0.50;;;16.70;89.90;;;;;;5015397;28;20144;-71
2023/08/27 07:38:14;;;;;;;0.50;0.10;;;16.80;88.10;;;;;;5031707;28;20279;-71
2023/08/27 07:40:40;;;;;;;1.00;0.30;;;16.90;88.90;;;;;;5023658;28;20321;-71
2023/08/27 07:43:06;;;;;;;2.47;0.40;;;17.10;88.80;;;;;;5029641;28;20295;-71
2023/08/27 07:45:32;;;;;;;1.77;0.70;;;17.30;88.30;;;;;;5015405;28;20362;-71
2023/08/27 07:47:58;;;;;;;1.17;0.60;;;17.50;88.30;;;;;;5012392;28;20350;-71
2023/08/27 07:50:28;;;;;;;1.70;0.40;;;17.70;88.30;;;;;;5012392;28;20037;-71
2023/08/27 07:52:54;;;;;;;2.40;0.60;;;17.70;87.80;;;;;;5026325;28;20303;-71
2023/08/27 07:55:20;;;;;;;0.90;0.40;;;17.70;85.20;;;;;;5023393;28;20282;-71
2023/08/27 07:57:46;;;;;;;0.60;0.27;;;17.70;85.90;;;;;;5028023;28;20238;-71
2023/08/27 08:00:15;;;;;;;1.27;0.20;;;17.70;85.00;;;;;;5029068;28;20282;-71
2023/08/27 08:02:41;;;;;;;0.30;0.10;;;17.70;85.20;;;;;;5029542;28;20325;-70
2023/08/27 08:05:07;;;;;;;0.90;0.20;;;17.60;82.80;;;;;;5012143;28;20426;-71
2023/08/27 08:07:35;;;;;;;0.40;0.20;;;17.60;80.90;;;;;;5027908;28;20041;-71
2023/08/27 08:10:01;;;;;;;0.10;0.00;;;17.60;80.50;;;;;;5024012;28;20693;-71
2023/08/27 08:12:26;;;;;;;0.30;0.10;;;17.60;81.20;;;;;;5023332;28;20314;-71
2023/08/27 08:14:52;;;;;;;0.43;0.10;;;17.60;79.40;;;;;;5030444;28;20635;-71
2023/08/27 08:17:18;;;;;;;0.40;0.10;;;17.70;81.20;;;;;;5029905;28;20087;-71
2023/08/27 08:19:44;;;;;;;0.33;0.10;;;17.70;80.70;;;;;;5028450;28;20315;-71
2023/08/27 08:22:10;;;;;;;0.43;0.10;;;17.70;79.80;;;;;;5026132;28;20038;-70
2023/08/27 08:24:36;;;;;;;0.50;0.10;;;17.70;79.00;;;;;;5029085;28;20473;-70
2023/08/27 08:27:02;;;;;;;0.90;0.20;;;17.80;79.30;;;;;;5010985;28;20294;-71
2023/08/27 08:29:34;;;;;;;0.63;0.10;;;17.80;79.00;;;;;;5005479;28;20549;-71
2023/08/27 08:32:00;;;;;;;0.20;0.10;;;17.80;78.60;;;;;;5012972;28;20296;-71
2023/08/27 08:34:30;;;;;;;0.67;0.20;;;17.90;78.20;;;;;;5011534;28;20279;-70
2023/08/27 08:36:56;;;;;;;0.30;0.10;;;17.90;78.10;;;;;;5029860;28;20292;-70
2023/08/27 08:39:24;;;;;;;0.77;0.37;;;17.90;78.60;;;;;;5010630;28;20271;-71
2023/08/27 08:42:06;;;;;;;0.30;0.10;;;18.00;77.70;;;;;;5025383;28;20308;-71
2023/08/27 08:45:05;;;;;;;0.83;0.13;;;17.90;78.20;;;;;;5024052;28;20283;-71
2023/08/27 08:47:34;;;;;;;0.70;0.17;;;17.90;78.60;;;;;;5028715;28;20470;-70
2023/08/27 08:50:05;;;;;;;1.67;0.30;;;17.90;79.20;;;;;;5027558;28;20287;-71
2023/08/27 08:52:38;;;;;;;0.53;0.20;;;18.00;79.60;;;;;;5022416;28;20037;-71
2023/08/27 08:55:08;;;;;;;0.53;0.20;;;18.10;78.60;;;;;;5025643;28;20032;-71
2023/08/27 08:57:38;;;;;;;0.50;0.20;;;18.20;78.30;;;;;;5029685;28;20282;-71
2023/08/27 09:00:07;;;;;;;0.73;0.20;;;18.50;77.60;;;;;;5024475;28;20045;-71
2023/08/27 09:02:35;;;;;;;1.30;0.50;;;18.80;76.90;;;;;;5027223;28;20041;-71
2023/08/27 09:05:02;;;;;;;1.60;0.20;;;19.10;76.50;;;;;;5024958;28;20036;-71
2023/08/27 09:07:31;;;;;;;1.27;0.53;;;19.30;74.10;;;;;;5020120;28;20759;-71
2023/08/27 09:09:59;;;;;;;1.47;0.30;;;19.40;74.30;;;;;;5028057;28;20059;-71
2023/08/27 09:12:26;;;;;;;0.80;0.30;;;19.30;72.80;;;;;;5013983;28;20045;-71
2023/08/27 09:14:52;;;;;;;1.27;0.30;;;19.30;72.50;;;;;;5019449;28;20072;-71
2023/08/27 09:17:19;;;;;;;1.17;0.30;;;19.30;72.40;;;;;;5018422;28;20075;-70
2023/08/27 09:19:46;;;;;;;0.70;0.40;;;19.10;72.70;;;;;;5025870;28;20389;-71
2023/08/27 09:22:14;;;;;;;1.37;0.30;;;18.90;72.20;;;;;;5019305;28;20465;-71
2023/08/27 09:24:40;;;;;;;0.90;0.40;;;18.90;73.50;;;;;;5021121;28;20059;-71
2023/08/27 09:27:06;;;;;;;1.73;0.40;;;19.00;74.10;;;;;;5002885;28;20603;-71
2023/08/27 09:29:33;;;;;;;1.83;0.50;;;18.90;72.30;;;;;;5014924;28;20043;-71
2023/08/27 09:31:59;;;;;;;1.77;0.70;;;18.70;72.40;;;;;;5017475;28;20046;-71
2023/08/27 09:34:25;;;;;;;3.43;0.60;;;18.50;73.40;;;;;;5021447;28;20560;-71
2023/08/27 09:36:51;;;;;;;2.00;0.53;;;18.50;74.20;;;;;;5023464;28;20033;-71
2023/08/27 09:39:17;;;;;;;1.57;0.30;;;18.70;75.20;;;;;;5026522;28;20064;-71
2023/08/27 09:41:44;;;;;;;1.43;0.50;;;18.80;72.60;;;;;;5029528;28;20099;-70
2023/08/27 09:44:10;;;;;;;4.17;0.60;;;18.80;72.30;;;;;;5026422;28;20083;-71
2023/08/27 09:46:37;;;;;;;1.00;0.60;;;18.70;72.60;;;;;;5026333;28;20045;-71
2023/08/27 09:49:04;;;;;;;2.17;0.70;;;18.50;73.00;;;;;;5013238;28;20037;-71
2023/08/27 09:51:39;;;;;;;1.27;0.50;;;18.40;73.10;;;;;;5026980;28;20049;-71
2023/08/27 09:54:19;;;;;;;3.10;1.20;;;18.30;73.70;;;;;;5036359;28;20529;-71
2023/08/27 09:56:46;;;;;;;3.23;1.00;;;18.30;74.10;;;;;;5013069;28;20045;-71
2023/08/27 09:59:17;;;;;;;3.17;1.00;;;18.40;75.30;;;;;;5031982;28;20050;-71
2023/08/27 10:01:50;;;;;;;3.37;1.80;;;18.40;75.30;;;;;;5031121;28;20044;-71
2023/08/27 10:04:17;;;;;;;2.87;2.10;;;18.50;75.30;;;;;;5028356;28;20052;-71
2023/08/27 10:06:44;;;;;;;3.30;1.93;;;18.50;75.50;;;;;;5032729;28;20119;-71
2023/08/27 10:09:09;;;;;;;2.60;1.77;;;18.40;75.20;;;;;;5026132;28;20037;-71
2023/08/27 10:11:36;;;;;;;2.37;1.00;;;18.40;76.00;;;;;;5021357;28;20116;-70
2023/08/27 10:14:03;;;;;;;3.63;0.93;;;18.40;75.70;;;;;;5023870;28;20086;-70
2023/08/27 10:16:30;;;;;;;2.57;0.70;;;18.50;75.60;;;;;;5027908;28;20445;-70
2023/08/27 10:18:57;;;;;;;2.60;0.70;;;18.50;75.00;;;;;;5015991;28;20049;-70
2023/08/27 10:21:24;;;;;;;2.30;0.63;;;18.50;74.80;;;;;;5025351;28;20136;-70
2023/08/27 10:23:50;;;;;;;2.77;0.70;;;18.70;75.70;;;;;;5031779;28;20098;-70
2023/08/27 10:26:16;;;;;;;2.27;0.83;;;18.70;75.00;;;;;;5031453;28;20128;-71
2023/08/27 10:28:44;;;;;;;4.10;1.63;;;18.70;74.70;;;;;;5022976;28;20127;-71
2023/08/27 10:31:09;;;;;;;8.80;1.30;;;18.60;76.50;;;;;;5030181;28;20562;-71
2023/08/27 10:33:36;;;;;;;6.90;1.60;;;18.30;77.60;;;;;;5030473;28;20037;-73
2023/08/27 10:36:31;;;;;;;11.60;2.40;;;17.90;79.80;;;;;;5028015;28;20101;-73
2023/08/27 10:39:00;;;;;;;4.28;1.35;;;17.50;83.20;;;;;;5031844;28;20065;-72
2023/08/27 10:41:26;;;;;;;4.13;1.10;;;17.00;84.60;;;;;;5027465;28;20132;-73
2023/08/27 10:43:51;;;;;;;2.97;1.20;;;16.70;86.30;;;;;;5032638;28;20564;-72
2023/08/27 10:46:20;;;;;;;2.40;1.20;;;16.60;86.70;;;;;;5023861;28;20042;-73
2023/08/27 10:48:54;;;;;;;5.83;1.87;;;16.60;87.40;;;;;;5011330;28;20501;-74
2023/08/27 10:51:21;;;;;;;4.97;1.60;;;16.50;88.10;;;;;;5014788;28;20045;-73
2023/08/27 10:53:50;;;;;;;2.60;1.40;;;16.40;88.10;;;;;;5023121;28;20283;-72
2023/08/27 10:56:26;;;;;;;3.27;1.50;;;16.20;88.70;;;;;;5019617;28;20100;-74
2023/08/27 10:58:59;;;;;;;3.37;0.73;;;15.80;89.50;;;;;;5031309;28;20380;-73
2023/08/27 11:01:25;;;;;;;7.37;0.90;;;15.50;89.20;;;;;;5026388;28;20299;-73
2023/08/27 11:04:03;;;;;;;7.47;1.07;;;15.20;89.80;;;;;;5031266;28;20322;-73
2023/08/27 11:06:45;;;;;;;3.03;0.50;;;14.80;92.70;;;;;;5026063;28;20291;-73
2023/08/27 11:09:20;;;;;;;4.43;0.50;;;14.30;93.80;;;;;;5032105;28;20280;-73
2023/08/27 11:12:03;;;;;;;2.60;0.30;;;13.90;94.90;;;;;;5007006;28;20304;-72
2023/08/27 11:14:29;;;;;;;2.23;0.20;;;13.70;96.20;;;;;;5027053;28;20355;-73
2023/08/27 11:16:57;;;;;;;3.23;0.30;;;13.60;96.60;;;;;;5024340;28;20275;-73
2023/08/27 11:19:37;;;;;;;1.80;0.40;;;13.60;96.60;;;;;;5027749;28;20768;-74
2023/08/27 11:22:19;;;;;;;1.57;0.27;;;13.70;96.90;;;;;;5029238;28;20280;-74
2023/08/27 11:24:50;;;;;;;1.23;0.33;;;13.70;96.50;;;;;;5030628;28;20317;-73
2023/08/27 11:27:17;;;;;;;2.97;0.73;;;13.70;96.80;;;;;;5030765;28;20276;-73
2023/08/27 11:29:51;;;;;;;0.90;0.30;;;13.70;96.50;;;;;;5031560;28;20319;-73
2023/08/27 11:32:19;;;;;;;1.00;0.30;;;13.70;95.70;;;;;;5031781;28;20799;-73
2023/08/27 11:34:48;;;;;;;2.10;0.50;;;13.80;96.00;;;;;;5030891;28;20280;-73
2023/08/27 11:37:14;;;;;;;5.37;0.70;;;13.90;96.00;;;;;;5014036;28;20287;-73
2023/08/27 11:39:41;;;;;;;2.67;0.43;;;14.00;95.10;;;;;;5030534;28;20290;-73
2023/08/27 11:42:15;;;;;;;3.87;0.50;;;14.10;96.10;;;;;;5016125;28;20322;-73
2023/08/27 11:44:52;;;;;;;1.58;0.30;;;14.30;96.00;;;;;;5042901;28;20287;-73
2023/08/27 11:47:19;;;;;;;2.93;0.50;;;14.60;95.30;;;;;;5028686;28;20247;-73
2023/08/27 11:49:45;;;;;;;1.33;0.30;;;15.00;95.80;;;;;;5031554;28;20391;-73
2023/08/27 11:52:14;;;;;;;1.80;0.50;;;15.50;97.20;;;;;;5033349;28;20963;-73
2023/08/27 11:54:42;;;;;;;2.43;0.67;;;15.90;95.80;;;;;;5029117;28;20541;-73
2023/08/27 11:57:08;;;;;;;0.87;0.23;;;16.40;94.40;;;;;;5033253;28;20314;-73
2023/08/27 11:59:34;;;;;;;1.50;0.30;;;16.70;93.10;;;;;;5033182;28;20789;-73
2023/08/27 12:02:02;;;;;;;1.57;0.30;;;16.90;92.10;;;;;;5015707;28;20132;-73
2023/08/27 12:04:28;;;;;;;1.37;0.30;;;17.10;91.30;;;;;;5020627;28;20041;-73
2023/08/27 12:07:00;;;;;;;2.33;0.30;;;17.40;91.30;;;;;;5004758;28;20350;-74
2023/08/27 12:09:31;;;;;;;0.43;0.30;;;17.70;90.20;;;;;;5026270;28;20723;-74
2023/08/27 12:12:02;;;;;;;1.80;0.40;;;17.90;89.30;;;;;;5015253;28;20302;-74
2023/08/27 12:14:29;;;;;;;0.83;0.30;;;18.00;89.00;;;;;;5016606;28;20971;-73
2023/08/27 12:17:04;;;;;;;1.77;0.20;;;18.10;87.80;;;;;;5014210;28;20043;-73
2023/08/27 12:19:31;;;;;;;0.95;0.20;;;18.00;82.60;;;;;;5039066;28;20283;-73
2023/08/27 12:21:57;;;;;;;1.47;0.30;;;17.70;81.70;;;;;;5033281;28;20045;-73
2023/08/27 12:24:42;;;;;;;0.73;0.10;;;17.60;83.60;;;;;;5031322;28;20298;-73
2023/08/27 12:27:09;;;;;;;;;;;17.50;84.60;;;;;;5018420;28;20047;-73
2023/08/27 12:29:43;;;;;;;0.83;0.40;;;17.40;81.70;;;;;;5038585;28;19921;-73
2023/08/27 12:32:16;;;;;;;2.23;0.30;;;17.30;84.20;;;;;;5030240;28;20749;-73
2023/08/27 12:34:49;;;;;;;1.67;0.30;;;17.50;84.40;;;;;;5012791;28;20975;-72
2023/08/27 12:37:17;;;;;;;2.40;0.30;;;17.80;85.30;;;;;;5019312;28;20772;-72
2023/08/27 12:39:44;;;;;;;2.07;0.57;;;18.20;85.50;;;;;;5031268;28;20566;-72
2023/08/27 12:42:11;;;;;;;2.00;0.30;;;18.50;80.90;;;;;;5030907;28;20398;-72
2023/08/27 12:44:38;;;;;;;3.53;0.93;;;18.70;82.70;;;;;;5025360;28;20036;-72